Language selection

Weather shortcuts

Lake Nipigon: Past 24 Hour Conditions

 

Kenora Airport

12:00 PM CDT 15 June 2024
Disclaimer

This table is a summary of hourly weather conditions for the past 24 hours.
Please note that these observations might not always be representative of weather conditions over their associated marine area.

Date / Time
(CDT)
Wind(knots) Conditions Visibility(km) Pressure(kPa) Air tempC) Relative humidity(%) Dew pointC) Humidex
15 June 2024
12:00 SSE 11 Mostly Cloudy 32 101.1 17 89 16 *
11:00 S 9 Light Rainshower 10 101.3 17 85 15 *
10:00 SW 13 Mostly Cloudy 32 101.3 19 68 13 *
9:00 S 6 gusts 15 Mostly Cloudy 32 101.3 19 73 14 *
8:00 S 9 Mostly Cloudy 32 101.4 18 72 13 *
7:00 S 8 Mostly Cloudy 32 101.4 17 82 14 *
6:00 S 6 Partly Cloudy 32 101.3 16 86 14 *
5:00 S 5 Partly Cloudy 32 101.4 16 83 13 *
4:00 S 6 Partly Cloudy 32 101.4 16 79 12 *
3:00 S 5 Partly Cloudy 32 101.4 16 73 11 *
2:00 SSE 4 Partly Cloudy 32 101.4 17 70 11 *
1:00 SSE 5 Partly Cloudy 32 101.4 17 68 11 *
0:00 SSE 5 Partly Cloudy 32 101.5 17 67 11 *
14 June 2024
23:00 S 6 Partly Cloudy 32 101.5 19 59 11 *
22:00 S 5 Mostly Cloudy 32 101.5 20 55 11 *
21:00 SSW 5 Mostly Cloudy 32 101.5 20 56 11 22
20:00 SSW 7 Mostly Cloudy 32 101.5 22 49 11 24
19:00 SSW 8 Partly Cloudy 32 101.5 23 46 11 24
18:00 SSW 9 Partly Cloudy 32 101.6 23 46 11 25
17:00 SW 10 Partly Cloudy 32 101.6 24 45 11 25
16:00 WSW 9 Partly Cloudy 32 101.6 23 44 10 24
15:00 WSW 9 Partly Cloudy 32 101.6 23 42 10 24
14:00 SW 8 Partly Cloudy 32 101.7 22 44 9 23
13:00 W 11 Partly Cloudy 32 101.7 22 45 9 *
12:00 W 4 Partly Cloudy 24 101.7 20 48 9 21

Zoom-in to make a selection

Map of Great Lakes - Lake Superior marine weather areas Mid Superior - 45001 East Superior - 45004 West Superior - 45006 Slate Island - 45136 Lake Of the Woods - 45148 Kenora Airport Royal Island Armstrong Airport Caribou Island Marathon Airport Pukaskwa National Park Thunder Bay Airport Welcome Island Little Flatland Island Sault Ste. Marie Airport Wawa Airport
Legend:
buoy Buoy
land station Land Station

Great Lakes - Lake Superior Area

Another Region

Features

New Predicting and Alerting Coastal Flooding Program

Find out about coastal flooding coverage, forecasts and warnings in your region

Date modified: